• Join FlightAware (Why Join?)
  • Login
  • US Flag 
12:43AM EDT


 

Airport Tracker/Info


-or-


 

Live Flight TrackerFlight Track Log ✈ CHH7668 ✈ 16-Jun-2013 ✈ ZGKL / KWL - ZUCK / CKG

Flight Track Log - Related Links

Times and Time Zones

All times are in EDT time to prevent confusion due to time zone crossing. See the CHH7668 flight status page for this flight to view local times or setup timezone preferences in your user account.

Time Position Orientation Groundspeed Altitude Reporting Facility
EDT Latitude Longitude Course Direction KTS MPH feet Rate Location/Type
12:39PM 25.3090 109.9738 327° Northwest  Level Estimated
12:40PM 25.3998 109.9083 327° Northwest  Level Estimated
12:41PM 25.4907 109.8427 327° Northwest  Level Estimated
12:42PM 25.5814 109.7770 327° Northwest  Level Estimated
12:43PM 25.6722 109.7112 327° Northwest  Level Estimated
12:44PM 25.7629 109.6453 327° Northwest  Level Estimated
12:45PM 25.8536 109.5793 327° Northwest  Level Estimated
12:46PM 25.9443 109.5132 327° Northwest  Level Estimated
12:47PM 26.0349 109.4470 327° Northwest  Level Estimated
12:48PM 26.1255 109.3807 327° Northwest  Level Estimated
12:49PM 26.2161 109.3142 327° Northwest  Level Estimated
12:50PM 26.3067 109.2477 327° Northwest  Level Estimated
12:51PM 26.3972 109.1811 327° Northwest  Level Estimated
12:52PM 26.4877 109.1144 327° Northwest  Level Estimated
12:53PM 26.5781 109.0476 327° Northwest  Level Estimated
12:54PM 26.6686 108.9806 327° Northwest  Level Estimated
12:55PM 26.7590 108.9136 326° Northwest  Level Estimated
12:56PM 26.8493 108.8464 326° Northwest  Level Estimated
12:57PM 26.9397 108.7792 326° Northwest  Level Estimated
12:58PM 27.0300 108.7118 326° Northwest  Level Estimated
12:59PM 27.1202 108.6443 326° Northwest  Level Estimated
01:00PM 27.2105 108.5768 326° Northwest  Level Estimated
01:01PM 27.3007 108.5091 326° Northwest  Level Estimated
01:02PM 27.3909 108.4413 326° Northwest  Level Estimated
01:03PM 27.4810 108.3734 326° Northwest  Level Estimated
01:04PM 27.5711 108.3054 326° Northwest  Level Estimated
01:05PM 27.6612 108.2372 326° Northwest  Level Estimated
01:06PM 27.7512 108.1690 326° Northwest  Level Estimated
01:07PM 27.8412 108.1006 326° Northwest  Level Estimated
01:08PM 27.9312 108.0321 326° Northwest  Level Estimated
01:09PM 28.0211 107.9635 326° Northwest  Level Estimated
01:10PM 28.1110 107.8949 326° Northwest  Level Estimated
01:11PM 28.2009 107.8260 326° Northwest  Level Estimated
01:12PM 28.2907 107.7571 326° Northwest  Level Estimated
01:13PM 28.3805 107.6880 326° Northwest  Level Estimated
01:14PM 28.4703 107.6189 326° Northwest  Level Estimated
01:15PM 28.5600 107.5496 326° Northwest  Level Estimated
01:16PM 28.6497 107.4802 326° Northwest  Level Estimated
01:17PM 28.7394 107.4107 326° Northwest  Level Estimated
01:18PM 28.8290 107.3410 326° Northwest  Level Estimated
01:19PM 28.9186 107.2713 326° Northwest  Level Estimated
01:20PM 29.0081 107.2014 326° Northwest  Level Estimated
01:21PM 29.0977 107.1314 326° Northwest  Level Estimated
01:22PM 29.1871 107.0613 326° Northwest  Level Estimated
01:23PM 29.2766 106.9910 326° Northwest  Level Estimated
01:24PM 29.3660 106.9207 326° Northwest  Level Estimated
01:25PM 29.4554 106.8502 326° Northwest  Level Estimated
01:26PM 29.5447 106.7795 325° Northwest  Level Estimated
01:26PM 29.5590 106.5940 325° Northwest 200 230 4,000  Level FlightAware
01:27PM 29.6340 106.7088 325° Northwest  Level Estimated
01:27PM 29.5850 106.5910 354° North 198 228 4,000  Level FlightAware
01:27PM 29.6100 106.6080 31° Northeast 184 212 3,400 -1,020 Descending FlightAware
01:28PM 29.6220 106.6120 16° North 178 205 3,200 -480 Descending FlightAware
01:29PM 29.6650 106.6270 17° North 163 188 2,800 -480 Descending FlightAware
01:31PM 29.7194 106.6410 13° North  Level Estimated
01:32PM 29.7194 106.6410 60° Northeast  Level Estimated
01:33PM 29.7194 106.6410 60° Northeast  Level Estimated